Time;durP1;ratioP1;P1;durP2;ratioP2;P2;SDS_P1;SDS_P2;PMS_P1;PMS_P2;Temp;Humidity;BMP_temperature;BMP_pressure;BME280_temperature;BME280_humidity;BME280_pressure;Samples;Min_cycle;Max_cycle;Signal;HPM_P1;HPM_P2
2021/11/09 00:00:42;;;;;;;26.75;15.00;;;10.50;74.90;;;;;;5015615;28;20030;-63
2021/11/09 00:03:11;;;;;;;26.17;15.05;;;10.40;74.90;;;;;;5025967;28;20120;-63
2021/11/09 00:06:01;;;;;;;29.40;15.77;;;10.30;75.00;;;;;;5035860;28;20115;-63
2021/11/09 00:08:31;;;;;;;26.70;16.27;;;10.30;75.20;;;;;;5038587;28;20036;-63
2021/11/09 00:10:57;;;;;;;28.75;15.57;;;10.20;75.30;;;;;;5033963;28;20107;-63
2021/11/09 00:13:23;;;;;;;31.30;16.20;;;10.10;75.40;;;;;;5025043;28;20428;-63
2021/11/09 00:15:49;;;;;;;37.05;16.65;;;10.00;75.60;;;;;;5036317;28;20559;-63
2021/11/09 00:18:15;;;;;;;31.40;16.25;;;10.00;75.80;;;;;;5027927;28;20108;-63
2021/11/09 00:20:42;;;;;;;25.67;16.50;;;9.90;75.90;;;;;;5031252;28;20061;-63
2021/11/09 00:23:10;;;;;;;25.63;14.73;;;9.90;76.00;;;;;;5030450;28;20104;-63
2021/11/09 00:25:37;;;;;;;24.10;14.23;;;9.80;75.80;;;;;;5031870;28;20078;-63
2021/11/09 00:28:03;;;;;;;27.70;16.08;;;9.70;75.80;;;;;;5034149;28;20033;-63
2021/11/09 00:30:30;;;;;;;27.38;16.08;;;9.70;75.70;;;;;;5035925;28;20098;-63
2021/11/09 00:32:56;;;;;;;25.90;14.82;;;9.60;75.90;;;;;;5033092;28;20032;-63
2021/11/09 00:35:25;;;;;;;35.78;16.55;;;9.60;76.00;;;;;;5018944;28;20046;-63
2021/11/09 00:37:51;;;;;;;29.42;15.60;;;9.60;76.20;;;;;;5021858;28;20512;-63
2021/11/09 00:40:21;;;;;;;29.65;16.55;;;9.60;76.80;;;;;;5039360;28;20113;-63
2021/11/09 00:42:46;;;;;;;26.58;14.93;;;9.70;76.80;;;;;;5028716;28;20021;-63
2021/11/09 00:45:14;;;;;;;25.92;15.18;;;9.60;76.60;;;;;;5033712;28;20447;-63
2021/11/09 00:47:40;;;;;;;24.67;14.60;;;9.60;76.60;;;;;;5018974;28;20531;-63
2021/11/09 00:50:08;;;;;;;25.02;14.95;;;9.70;76.60;;;;;;5025898;28;20072;-63
2021/11/09 00:52:34;;;;;;;25.95;15.63;;;9.70;76.40;;;;;;5028781;28;20456;-63
2021/11/09 00:55:01;;;;;;;28.77;15.57;;;9.70;76.40;;;;;;5037022;28;20088;-63
2021/11/09 00:57:27;;;;;;;31.52;15.27;;;9.70;76.40;;;;;;5037834;28;20052;-63
2021/11/09 00:59:52;;;;;;;28.52;15.25;;;9.80;76.40;;;;;;5042708;28;20036;-63
2021/11/09 01:02:19;;;;;;;27.02;15.68;;;9.80;76.50;;;;;;5024303;28;20018;-63
2021/11/09 01:04:45;;;;;;;26.33;15.80;;;9.80;76.60;;;;;;5027438;28;20056;-63
2021/11/09 01:07:11;;;;;;;23.58;14.50;;;9.80;76.60;;;;;;5030105;28;20025;-63
2021/11/09 01:09:37;;;;;;;32.92;16.30;;;9.80;76.70;;;;;;5027918;28;20544;-63
2021/11/09 01:12:04;;;;;;;29.90;15.65;;;9.80;76.80;;;;;;5030120;28;20036;-63
2021/11/09 01:14:31;;;;;;;28.17;15.07;;;9.70;76.90;;;;;;5025392;28;20080;-63
2021/11/09 01:16:57;;;;;;;30.30;15.40;;;9.70;76.90;;;;;;5040177;28;20025;-63
2021/11/09 01:19:23;;;;;;;29.58;16.20;;;9.70;77.60;;;;;;5029158;28;20554;-63
2021/11/09 01:21:51;;;;;;;29.33;15.75;;;9.60;77.70;;;;;;5031347;28;20455;-63
2021/11/09 01:24:18;;;;;;;26.60;14.95;;;9.50;77.80;;;;;;5031462;28;20033;-63
2021/11/09 01:26:45;;;;;;;27.48;16.02;;;9.40;77.80;;;;;;5039156;28;20059;-63
2021/11/09 01:29:12;;;;;;;27.60;14.65;;;9.40;78.10;;;;;;5037622;28;20033;-63
2021/11/09 01:31:38;;;;;;;27.95;15.18;;;9.30;78.10;;;;;;5031672;28;20451;-63
2021/11/09 01:34:04;;;;;;;29.10;15.45;;;9.20;78.20;;;;;;5028737;28;20034;-63
2021/11/09 01:36:31;;;;;;;26.60;15.13;;;9.20;79.90;;;;;;5038333;28;20025;-63
2021/11/09 01:38:57;;;;;;;30.08;15.00;;;9.10;78.80;;;;;;5035160;28;20510;-63
2021/11/09 01:41:23;;;;;;;25.58;14.38;;;9.00;79.00;;;;;;5030513;28;20572;-63
2021/11/09 01:43:51;;;;;;;24.90;14.10;;;9.00;79.20;;;;;;5020120;28;20034;-63
2021/11/09 01:46:18;;;;;;;24.33;14.63;;;8.90;79.20;;;;;;5037754;28;20030;-63
2021/11/09 01:48:45;;;;;;;27.88;13.90;;;8.90;79.10;;;;;;5043268;28;20124;-63
2021/11/09 01:51:14;;;;;;;23.05;13.38;;;8.80;78.90;;;;;;5036844;28;20021;-63
2021/11/09 01:53:42;;;;;;;27.52;13.75;;;8.80;78.80;;;;;;5036707;28;20021;-63
2021/11/09 01:56:14;;;;;;;21.50;14.13;;;8.70;78.60;;;;;;5025939;28;20389;-63
2021/11/09 01:58:40;;;;;;;26.48;15.68;;;8.70;78.60;;;;;;5038398;28;20483;-63
2021/11/09 02:01:13;;;;;;;27.67;14.55;;;8.60;78.70;;;;;;5040875;28;20033;-63
2021/11/09 02:03:42;;;;;;;26.52;14.65;;;8.60;78.90;;;;;;5037792;28;20029;-63
2021/11/09 02:06:08;;;;;;;28.35;15.63;;;8.60;78.90;;;;;;5039856;28;20400;-63
2021/11/09 02:08:34;;;;;;;29.80;14.65;;;8.50;78.90;;;;;;5044016;28;20033;-63
2021/11/09 02:11:01;;;;;;;27.45;14.30;;;8.40;78.80;;;;;;5029792;28;20391;-63
2021/11/09 02:13:27;;;;;;;28.27;14.60;;;8.40;78.70;;;;;;5030686;28;20017;-63
2021/11/09 02:15:54;;;;;;;29.13;15.27;;;8.40;79.10;;;;;;5038494;28;20033;-63
2021/11/09 02:18:21;;;;;;;23.02;13.80;;;8.40;79.40;;;;;;5047244;28;20036;-63
2021/11/09 02:20:58;;;;;;;27.10;14.65;;;8.30;79.30;;;;;;5034522;28;20083;-63
2021/11/09 02:23:29;;;;;;;25.77;14.52;;;8.30;79.30;;;;;;5030712;28;20439;-63
2021/11/09 02:25:55;;;;;;;27.90;14.63;;;8.30;79.40;;;;;;5038944;28;20526;-63
2021/11/09 02:28:21;;;;;;;24.73;13.05;;;8.30;79.30;;;;;;5032651;28;20030;-63
2021/11/09 02:30:47;;;;;;;22.30;13.75;;;8.20;79.10;;;;;;5029272;28;20029;-63
2021/11/09 02:33:14;;;;;;;28.23;13.68;;;8.20;78.90;;;;;;5036892;28;20029;-63
2021/11/09 02:35:42;;;;;;;23.10;13.40;;;8.20;78.90;;;;;;5028566;28;20048;-63
2021/11/09 02:38:13;;;;;;;26.45;13.48;;;8.20;78.80;;;;;;5032883;28;20026;-63
2021/11/09 02:40:42;;;;;;;27.20;14.13;;;8.20;78.70;;;;;;5028559;28;20022;-63
2021/11/09 02:43:16;;;;;;;35.30;13.98;;;8.20;78.60;;;;;;5039681;28;20045;-63
2021/11/09 02:48:57;;;;;;;26.63;12.95;;;8.20;78.70;;;;;;5029190;28;20096;-63
2021/11/09 02:52:09;;;;;;;23.48;13.07;;;8.10;78.60;;;;;;5028951;28;20021;-63
2021/11/09 02:54:26;;;;;;;26.67;13.52;;;8.10;78.80;;;;;;5021955;28;20055;-63
2021/11/09 02:57:10;;;;;;;21.90;13.77;;;8.10;79.00;;;;;;5026984;28;20021;-63
2021/11/09 03:07:51;;;;;;;24.25;12.20;;;7.90;78.60;;;;;;5024354;28;20116;-63
2021/11/09 03:10:28;;;;;;;20.52;11.88;;;7.90;78.50;;;;;;5035062;28;20028;-63
2021/11/09 03:12:55;;;;;;;22.20;12.15;;;7.80;78.20;;;;;;5021838;28;20040;-63
2021/11/09 03:15:26;;;;;;;18.15;11.55;;;7.80;78.30;;;;;;5016115;28;20400;-63
2021/11/09 03:17:56;;;;;;;;;;;7.80;78.30;;;;;;5035492;28;20033;-63
2021/11/09 03:20:36;;;;;;;21.55;12.43;;;7.80;78.30;;;;;;5020421;28;19909;-63
2021/11/09 03:45:27;;;;;;;19.40;11.55;;;7.50;78.30;;;;;;5020326;28;20099;-63
2021/11/09 03:47:56;;;;;;;16.42;9.82;;;7.50;78.20;;;;;;5038234;28;20468;-63
2021/11/09 03:50:26;;;;;;;15.15;9.90;;;7.40;78.10;;;;;;5034528;28;20496;-63
2021/11/09 03:55:27;;;;;;;15.20;10.18;;;7.40;77.90;;;;;;5033118;28;20060;-63
2021/11/09 03:58:07;;;;;;;17.90;10.30;;;7.40;77.90;;;;;;5029848;28;20516;-63
2021/11/09 04:03:12;;;;;;;17.10;10.35;;;7.30;77.60;;;;;;5031555;28;20041;-63
2021/11/09 04:05:42;;;;;;;16.88;10.43;;;7.30;77.50;;;;;;5028469;28;20091;-63
2021/11/09 04:08:17;;;;;;;17.42;11.02;;;7.30;77.30;;;;;;5025780;28;20052;-63
2021/11/09 04:30:15;;;;;;;17.77;10.85;;;7.00;77.20;;;;;;4983970;28;20030;-63
2021/11/09 05:12:19;;;;;;;18.02;12.68;;;6.70;80.10;;;;;;5043414;28;20110;-62
2021/11/09 05:14:45;;;;;;;19.13;11.85;;;6.60;80.00;;;;;;5033477;28;20080;-63
2021/11/09 05:17:11;;;;;;;21.00;12.05;;;6.60;80.00;;;;;;5025892;28;20037;-62
2021/11/09 05:19:37;;;;;;;22.17;12.10;;;6.60;80.00;;;;;;5014600;28;20025;-62
2021/11/09 05:22:03;;;;;;;18.13;11.57;;;6.60;81.00;;;;;;5014054;28;20034;-63
2021/11/09 05:24:29;;;;;;;17.17;10.60;;;6.60;80.00;;;;;;5028387;28;20028;-63
2021/11/09 05:26:55;;;;;;;20.88;12.10;;;6.60;80.00;;;;;;5027362;28;20107;-63
2021/11/09 05:29:21;;;;;;;18.85;10.80;;;6.60;79.90;;;;;;5023838;28;20563;-62
2021/11/09 05:31:47;;;;;;;17.77;11.02;;;6.60;79.70;;;;;;5033471;28;20065;-63
2021/11/09 05:34:13;;;;;;;24.02;11.18;;;6.60;79.60;;;;;;5026493;28;20419;-63
2021/11/09 05:36:42;;;;;;;21.23;12.18;;;6.60;79.50;;;;;;5022070;28;20030;-63
2021/11/09 05:41:39;;;;;;;21.77;12.48;;;6.60;79.70;;;;;;5026778;28;20045;-63
2021/11/09 05:44:06;;;;;;;20.65;11.73;;;6.50;79.70;;;;;;5022257;28;20022;-64
2021/11/09 05:46:37;;;;;;;15.70;10.85;;;6.50;79.70;;;;;;5022637;28;20030;-63
2021/11/09 05:49:04;;;;;;;15.63;10.07;;;6.50;79.70;;;;;;5024824;28;20501;-63
2021/11/09 05:51:30;;;;;;;21.35;10.90;;;6.50;79.50;;;;;;5039377;28;20037;-63
2021/11/09 05:53:57;;;;;;;28.52;12.27;;;6.50;79.20;;;;;;5033456;28;20411;-63
2021/11/09 05:56:23;;;;;;;20.45;11.40;;;6.50;79.30;;;;;;5024237;28;20057;-63
2021/11/09 05:58:49;;;;;;;18.13;10.27;;;6.50;79.60;;;;;;5026263;28;20033;-63
2021/11/09 06:01:15;;;;;;;18.85;10.75;;;6.40;79.50;;;;;;5030614;28;20039;-63
2021/11/09 06:03:41;;;;;;;25.25;11.60;;;6.40;79.40;;;;;;5042549;28;20038;-64
2021/11/09 06:06:07;;;;;;;20.25;10.32;;;6.40;79.40;;;;;;5029351;28;20099;-63
2021/11/09 06:08:33;;;;;;;23.77;11.43;;;6.40;79.40;;;;;;5019556;28;20788;-63
2021/11/09 06:10:59;;;;;;;19.95;11.77;;;6.40;79.20;;;;;;5017870;28;20043;-63
2021/11/09 06:13:25;;;;;;;21.33;11.73;;;6.40;79.10;;;;;;5018358;28;20025;-63
2021/11/09 06:15:51;;;;;;;22.00;12.30;;;6.30;79.10;;;;;;5016414;28;20109;-63
2021/11/09 06:18:17;;;;;;;17.50;11.52;;;6.30;79.30;;;;;;5018193;28;20018;-63
2021/11/09 06:20:42;;;;;;;20.25;11.90;;;6.30;79.50;;;;;;5033826;28;20060;-63
2021/11/09 06:23:08;;;;;;;17.13;11.23;;;6.30;79.70;;;;;;5031445;28;20025;-63
2021/11/09 06:25:34;;;;;;;18.50;12.23;;;6.30;79.70;;;;;;5035259;28;20034;-63
2021/11/09 06:28:04;;;;;;;16.17;10.57;;;6.30;79.70;;;;;;5029983;28;20041;-63
2021/11/09 06:30:30;;;;;;;19.88;11.02;;;6.30;79.70;;;;;;5031766;28;20056;-63
2021/11/09 06:32:56;;;;;;;18.63;11.18;;;6.30;79.50;;;;;;5043417;28;20064;-63
2021/11/09 06:35:22;;;;;;;21.55;12.05;;;6.20;79.40;;;;;;5028207;28;20073;-63
2021/11/09 06:37:48;;;;;;;18.75;11.43;;;6.20;79.40;;;;;;5030809;28;20026;-63
2021/11/09 06:40:14;;;;;;;19.60;11.50;;;6.20;79.50;;;;;;5030648;28;20025;-63
2021/11/09 06:42:40;;;;;;;17.23;11.07;;;6.20;79.60;;;;;;5027955;28;20600;-63
2021/11/09 06:45:07;;;;;;;19.15;11.38;;;6.20;79.50;;;;;;5037263;28;20028;-63
2021/11/09 06:47:32;;;;;;;14.77;10.00;;;6.20;79.60;;;;;;5027690;28;20028;-63
2021/11/09 06:49:59;;;;;;;21.73;12.35;;;6.20;79.60;;;;;;5028278;28;20479;-63
2021/11/09 06:52:25;;;;;;;18.90;10.82;;;6.20;79.50;;;;;;5016856;28;20021;-64
2021/11/09 06:54:51;;;;;;;23.75;13.68;;;6.20;79.40;;;;;;5026975;28;20104;-64
2021/11/09 06:57:17;;;;;;;18.45;11.15;;;6.20;79.50;;;;;;5025334;28;20032;-64
2021/11/09 06:59:42;;;;;;;16.15;10.05;;;6.20;79.50;;;;;;5014596;28;20030;-64
2021/11/09 07:02:08;;;;;;;20.55;11.38;;;6.20;79.30;;;;;;5034185;28;20495;-63
2021/11/09 07:04:34;;;;;;;19.33;11.75;;;6.20;79.30;;;;;;5034000;28;20075;-63
2021/11/09 07:07:01;;;;;;;22.00;11.25;;;6.20;79.00;;;;;;5038862;28;20041;-64
2021/11/09 07:09:27;;;;;;;19.08;11.60;;;6.20;79.00;;;;;;5034165;28;20400;-63
2021/11/09 07:11:53;;;;;;;19.10;10.63;;;6.30;79.00;;;;;;5026926;28;20124;-63
2021/11/09 07:14:20;;;;;;;24.58;10.75;;;6.20;78.90;;;;;;5037067;28;20445;-64
2021/11/09 07:16:47;;;;;;;18.02;10.88;;;6.30;78.90;;;;;;5036345;28;20057;-63
2021/11/09 07:19:16;;;;;;;16.88;10.50;;;6.30;78.60;;;;;;5032330;28;20026;-64
2021/11/09 07:21:42;;;;;;;17.05;10.88;;;6.30;78.30;;;;;;5027169;28;20073;-64
2021/11/09 07:24:08;;;;;;;16.55;10.50;;;6.30;78.10;;;;;;5028248;28;20087;-63
2021/11/09 07:26:34;;;;;;;18.02;10.15;;;6.40;77.90;;;;;;5018780;28;20034;-64
2021/11/09 07:29:00;;;;;;;15.60;10.68;;;6.40;77.70;;;;;;5027347;28;20057;-63
2021/11/09 07:31:28;;;;;;;15.88;10.77;;;6.60;77.60;;;;;;5018358;28;20061;-63
2021/11/09 07:33:54;;;;;;;18.20;10.45;;;6.70;77.30;;;;;;5028440;28;20030;-63
2021/11/09 07:36:21;;;;;;;18.17;10.57;;;7.00;76.70;;;;;;5032690;28;20035;-63
2021/11/09 07:38:47;;;;;;;19.17;12.30;;;7.20;76.20;;;;;;5026825;28;20033;-63
2021/11/09 07:41:13;;;;;;;19.08;12.25;;;7.20;76.50;;;;;;5022327;28;20022;-63
2021/11/09 07:43:39;;;;;;;18.35;11.68;;;7.20;76.70;;;;;;5016772;28;20517;-63
2021/11/09 07:46:05;;;;;;;21.92;11.68;;;7.10;76.70;;;;;;5034120;28;20120;-63
2021/11/09 07:48:31;;;;;;;22.20;11.68;;;7.20;77.10;;;;;;5023999;28;20523;-63
2021/11/09 07:50:57;;;;;;;17.83;11.73;;;7.40;77.30;;;;;;5026871;28;20021;-63
2021/11/09 07:53:29;;;;;;;17.25;11.70;;;7.60;76.80;;;;;;5031154;28;20190;-63
2021/11/09 07:56:12;;;;;;;18.52;11.43;;;8.20;75.90;;;;;;5022218;28;20509;-64
2021/11/09 08:01:08;;;;;;;16.80;11.38;;;9.70;72.00;;;;;;5028684;28;20065;-64
2021/11/09 08:03:46;;;;;;;16.90;11.68;;;9.60;71.50;;;;;;5026795;28;20024;-63
2021/11/09 08:06:25;;;;;;;21.90;12.35;;;9.40;71.90;;;;;;5030078;28;20030;-64
2021/11/09 08:11:23;;;;;;;18.42;11.43;;;9.10;72.60;;;;;;5018350;28;20026;-65
2021/11/09 08:13:49;;;;;;;18.13;11.43;;;9.00;72.90;;;;;;5030305;28;20092;-64
2021/11/09 08:16:16;;;;;;;18.55;11.02;;;9.00;73.30;;;;;;5028762;28;20034;-63
2021/11/09 08:18:44;;;;;;;45.63;35.35;;;8.90;73.40;;;;;;5027504;28;20500;-63
2021/11/09 08:21:11;;;;;;;31.33;23.17;;;8.90;73.50;;;;;;5027822;28;20026;-64
2021/11/09 08:23:38;;;;;;;20.27;12.02;;;8.90;73.60;;;;;;5029033;28;20056;-64
2021/11/09 08:26:04;;;;;;;21.35;12.00;;;8.90;73.80;;;;;;5024768;28;20037;-64
2021/11/09 08:28:34;;;;;;;26.88;17.80;;;8.90;73.80;;;;;;5034260;28;20059;-64
2021/11/09 08:31:08;;;;;;;24.88;15.32;;;9.00;73.80;;;;;;5027216;28;20029;-64
2021/11/09 08:33:34;;;;;;;25.63;13.98;;;9.10;73.80;;;;;;5046256;28;20037;-64
2021/11/09 08:36:04;;;;;;;23.95;14.43;;;9.10;74.60;;;;;;5027524;28;20037;-63
2021/11/09 08:38:32;;;;;;;28.15;14.32;;;9.20;73.60;;;;;;5019877;28;20026;-64
2021/11/09 08:41:01;;;;;;;22.23;13.48;;;9.30;73.50;;;;;;5017749;28;20037;-63
2021/11/09 08:43:30;;;;;;;21.95;14.30;;;9.40;73.50;;;;;;5015288;28;20036;-63
2021/11/09 08:46:06;;;;;;;26.70;13.18;;;9.50;73.20;;;;;;5025721;28;20116;-64
2021/11/09 08:48:37;;;;;;;26.67;14.68;;;9.70;72.90;;;;;;5026075;28;20411;-63
2021/11/09 08:51:08;;;;;;;25.83;14.02;;;9.90;72.40;;;;;;5029045;28;20581;-63
2021/11/09 08:53:39;;;;;;;24.88;14.90;;;10.20;72.10;;;;;;5024320;28;20084;-64
2021/11/09 08:56:24;;;;;;;25.65;14.88;;;10.40;71.50;;;;;;5036015;28;20061;-63
2021/11/09 09:04:36;;;;;;;26.02;14.57;;;12.00;68.10;;;;;;5051223;28;20021;-64
2021/11/09 09:07:03;;;;;;;27.38;14.60;;;12.50;65.90;;;;;;5017666;28;20128;-64
2021/11/09 09:09:29;;;;;;;30.45;13.60;;;12.70;65.40;;;;;;5058367;28;20475;-63
2021/11/09 09:11:56;;;;;;;25.25;13.20;;;12.90;65.00;;;;;;5051667;28;20526;-63
2021/11/09 09:14:23;;;;;;;26.65;13.73;;;13.00;64.40;;;;;;5050847;28;20032;-64
2021/11/09 09:16:50;;;;;;;32.70;14.48;;;13.10;64.40;;;;;;5029213;28;20101;-63
2021/11/09 09:19:19;;;;;;;24.40;14.32;;;13.20;64.30;;;;;;5057494;28;20029;-64
2021/11/09 09:21:48;;;;;;;29.35;14.75;;;13.40;63.90;;;;;;5030526;28;20044;-64
2021/11/09 09:27:05;;;;;;;24.17;12.65;;;15.10;60.60;;;;;;5056114;28;20278;-65
2021/11/09 09:54:19;;;;;;;23.13;10.77;;;19.00;49.80;;;;;;5018172;28;20033;-65
2021/11/09 09:56:54;;;;;;;27.17;12.93;;;19.00;49.80;;;;;;5018397;28;20040;-65
2021/11/09 09:59:26;;;;;;;21.67;10.15;;;20.40;48.00;;;;;;5027681;28;20048;-66
2021/11/09 10:02:15;;;;;;;21.42;14.05;;;22.40;44.60;;;;;;5028151;28;20021;-66
2021/11/09 10:04:49;;;;;;;26.92;13.52;;;24.30;40.80;;;;;;5033535;28;20051;-65
2021/11/09 10:07:39;;;;;;;22.58;12.80;;;25.60;38.30;;;;;;5038875;28;20032;-65
2021/11/09 10:10:11;;;;;;;20.35;11.30;;;26.70;36.20;;;;;;5015271;28;20088;-65
2021/11/09 10:12:40;;;;;;;19.92;13.00;;;27.70;34.40;;;;;;5031093;28;20033;-66
2021/11/09 10:15:21;;;;;;;22.25;11.48;;;28.50;32.80;;;;;;5018164;28;20038;-65
2021/11/09 10:17:54;;;;;;;19.83;10.85;;;29.30;31.20;;;;;;5027108;28;20037;-65
2021/11/09 10:20:23;;;;;;;22.45;10.18;;;29.90;30.20;;;;;;5022855;28;20026;-66
2021/11/09 10:22:56;;;;;;;18.08;9.13;;;30.40;29.50;;;;;;5026537;28;20378;-66
2021/11/09 10:25:23;;;;;;;20.23;9.05;;;31.00;28.60;;;;;;5025855;28;20026;-64
2021/11/09 10:27:53;;;;;;;16.95;9.18;;;31.50;28.10;;;;;;5017782;28;20037;-64
2021/11/09 10:30:29;;;;;;;17.58;8.98;;;32.00;27.50;;;;;;5030309;28;20468;-64
2021/11/09 10:32:55;;;;;;;17.35;8.13;;;32.50;27.10;;;;;;5024300;28;20033;-64
2021/11/09 10:35:22;;;;;;;18.80;8.02;;;33.10;26.50;;;;;;5025868;28;20029;-64
2021/11/09 10:37:51;;;;;;;19.25;9.90;;;33.60;26.90;;;;;;5023601;28;20156;-64
2021/11/09 10:40:28;;;;;;;15.88;7.18;;;34.10;25.20;;;;;;5015971;28;20112;-64
2021/11/09 10:43:00;;;;;;;20.20;12.05;;;34.60;24.70;;;;;;5035224;28;20033;-64
2021/11/09 10:45:30;;;;;;;16.08;6.80;;;35.10;24.40;;;;;;5015059;28;20397;-64
2021/11/09 10:48:02;;;;;;;13.20;5.60;;;35.60;24.20;;;;;;5030656;28;20018;-64
2021/11/09 10:50:31;;;;;;;11.95;5.15;;;36.10;23.70;;;;;;5017704;28;20544;-64
2021/11/09 11:06:44;;;;;;;9.85;3.78;;;38.90;21.70;;;;;;5037477;28;20060;-63
2021/11/09 11:09:09;;;;;;;9.98;4.13;;;39.00;20.50;;;;;;5017181;28;20045;-64
2021/11/09 11:11:41;;;;;;;11.65;3.97;;;39.30;20.30;;;;;;5016441;28;20018;-64
2021/11/09 11:14:24;;;;;;;12.32;4.03;;;39.60;20.20;;;;;;5028662;28;20037;-63
2021/11/09 11:16:52;;;;;;;12.65;4.10;;;39.80;19.90;;;;;;5032619;28;20064;-63
2021/11/09 11:19:21;;;;;;;10.95;6.05;;;39.50;19.90;;;;;;5027249;28;20065;-63
2021/11/09 11:21:47;;;;;;;9.25;2.80;;;39.60;20.30;;;;;;5011382;28;20026;-64
2021/11/09 11:24:14;;;;;;;8.85;2.88;;;39.90;19.80;;;;;;5016593;28;20552;-63
2021/11/09 11:26:42;;;;;;;8.05;2.83;;;40.30;19.50;;;;;;5016557;28;20093;-64
2021/11/09 11:29:08;;;;;;;10.07;2.97;;;40.50;19.30;;;;;;5019710;28;20026;-64
2021/11/09 11:31:34;;;;;;;9.82;2.63;;;40.90;19.10;;;;;;5026339;28;20084;-64
2021/11/09 11:34:00;;;;;;;9.98;2.67;;;41.20;18.80;;;;;;5024967;28;20030;-64
2021/11/09 11:36:26;;;;;;;8.88;2.70;;;41.50;18.50;;;;;;5027209;28;20029;-63
2021/11/09 11:38:58;;;;;;;11.35;2.70;;;41.80;18.20;;;;;;5026084;28;20030;-64
2021/11/09 11:41:33;;;;;;;9.88;2.90;;;41.90;17.90;;;;;;5019722;28;20069;-64
2021/11/09 11:44:00;;;;;;;10.95;2.80;;;42.00;17.60;;;;;;5014974;28;20025;-64
2021/11/09 11:46:32;;;;;;;10.25;2.90;;;42.10;17.70;;;;;;5013139;28;20048;-64
2021/11/09 11:49:26;;;;;;;10.18;2.83;;;42.20;17.50;;;;;;5038179;28;20084;-64
2021/11/09 11:51:54;;;;;;;11.35;2.67;;;42.40;17.40;;;;;;5012357;28;20073;-64
2021/11/09 11:54:40;;;;;;;9.43;3.72;;;42.60;17.10;;;;;;5015811;28;20049;-64
2021/11/09 11:57:07;;;;;;;9.68;3.70;;;42.40;16.40;;;;;;5016203;28;20037;-64
2021/11/09 11:59:32;;;;;;;10.68;3.00;;;42.00;16.40;;;;;;5021642;28;20516;-64
2021/11/09 12:02:06;;;;;;;13.50;3.40;;;41.70;16.70;;;;;;5026290;28;20148;-64
2021/11/09 12:04:42;;;;;;;8.98;3.20;;;41.70;16.90;;;;;;5026097;28;20109;-64
2021/11/09 12:07:16;;;;;;;10.82;3.40;;;41.70;17.00;;;;;;5013493;28;20041;-63
2021/11/09 12:09:44;;;;;;;10.55;3.15;;;41.90;17.00;;;;;;5027479;28;20493;-64
2021/11/09 12:12:30;;;;;;;10.98;3.80;;;42.10;16.80;;;;;;5016018;28;20030;-64
2021/11/09 12:15:02;;;;;;;10.85;3.85;;;42.20;16.60;;;;;;5033145;28;20033;-63
2021/11/09 12:17:44;;;;;;;12.57;3.53;;;42.30;16.30;;;;;;5026871;28;20029;-64
2021/11/09 12:20:16;;;;;;;11.65;3.75;;;42.20;16.40;;;;;;5020444;28;20038;-64
2021/11/09 12:22:47;;;;;;;9.07;3.40;;;42.20;16.40;;;;;;5015488;28;20492;-64
2021/11/09 12:25:33;;;;;;;11.40;3.22;;;42.20;16.70;;;;;;5014206;28;20029;-64
2021/11/09 12:28:03;;;;;;;11.63;3.70;;;42.40;16.40;;;;;;5012268;28;20101;-64
2021/11/09 12:30:32;;;;;;;9.85;3.60;;;42.60;16.40;;;;;;5013968;28;20034;-64
2021/11/09 12:33:28;;;;;;;10.18;3.30;;;42.80;16.20;;;;;;5032526;28;20033;-64
2021/11/09 12:36:03;;;;;;;11.65;3.50;;;42.70;15.90;;;;;;5025279;28;20049;-63
2021/11/09 12:38:48;;;;;;;9.68;3.17;;;42.50;15.90;;;;;;5024616;28;20027;-63
2021/11/09 12:41:29;;;;;;;10.25;3.03;;;42.40;16.30;;;;;;5019509;28;20045;-64
2021/11/09 12:44:03;;;;;;;9.98;3.20;;;42.20;16.30;;;;;;5030333;28;20479;-64
2021/11/09 12:46:39;;;;;;;11.65;3.30;;;42.00;16.40;;;;;;5029707;28;20029;-64
2021/11/09 12:49:13;;;;;;;11.77;3.17;;;41.70;16.60;;;;;;5028077;28;20561;-64
2021/11/09 12:51:45;;;;;;;9.82;2.97;;;40.80;17.40;;;;;;5034450;28;20387;-64
2021/11/09 12:54:26;;;;;;;9.88;3.10;;;38.40;18.60;;;;;;4998482;28;20511;-64
2021/11/09 12:56:59;;;;;;;12.57;3.78;;;35.70;20.90;;;;;;5025258;28;20037;-64
2021/11/09 12:59:33;;;;;;;12.65;3.58;;;34.00;21.10;;;;;;5026764;28;20036;-64
2021/11/09 13:02:14;;;;;;;13.55;4.03;;;32.70;22.20;;;;;;5031106;28;20557;-63
2021/11/09 13:09:58;;;;;;;13.80;4.22;;;29.90;25.00;;;;;;5025192;28;20033;-63
2021/11/09 13:12:26;;;;;;;13.73;3.72;;;29.40;25.40;;;;;;5042810;28;20036;-64
2021/11/09 13:15:13;;;;;;;11.80;3.70;;;29.40;25.50;;;;;;5020044;28;20359;-64
2021/11/09 13:17:46;;;;;;;13.90;3.72;;;30.50;24.50;;;;;;5026502;28;20116;-64
2021/11/09 13:23:07;;;;;;;13.65;3.88;;;34.80;22.00;;;;;;5018878;28;20057;-64
2021/11/09 13:25:36;;;;;;;28.52;8.65;;;35.90;20.90;;;;;;5018651;28;20519;-64
2021/11/09 13:28:14;;;;;;;10.90;3.93;;;36.50;20.50;;;;;;5017084;28;20029;-64
2021/11/09 13:30:41;;;;;;;27.95;7.60;;;37.00;20.10;;;;;;5020683;28;20079;-63
2021/11/09 13:33:08;;;;;;;17.60;5.53;;;37.40;19.80;;;;;;5032188;28;20480;-64
2021/11/09 13:35:40;;;;;;;11.05;3.90;;;37.60;19.50;;;;;;5021816;28;20022;-64
2021/11/09 13:38:17;;;;;;;13.80;4.07;;;37.40;18.70;;;;;;5018835;28;20073;-64
2021/11/09 13:40:47;;;;;;;14.32;3.88;;;35.50;18.90;;;;;;5018234;28;20029;-64
2021/11/09 13:43:17;;;;;;;10.05;3.50;;;35.00;20.70;;;;;;5030182;28;20026;-64
2021/11/09 13:45:43;;;;;;;14.03;3.80;;;33.70;20.90;;;;;;5022712;28;20037;-65
2021/11/09 13:48:16;;;;;;;13.27;3.70;;;33.60;21.90;;;;;;5018936;28;20332;-65
2021/11/09 13:50:43;;;;;;;12.05;4.50;;;32.20;22.20;;;;;;5025698;28;20034;-65
2021/11/09 13:53:09;;;;;;;12.30;3.92;;;33.50;22.20;;;;;;5030484;28;20040;-65
2021/11/09 13:55:36;;;;;;;13.75;4.35;;;34.20;21.80;;;;;;5036047;28;20045;-64
2021/11/09 13:58:03;;;;;;;12.77;3.78;;;34.70;21.20;;;;;;5016298;28;20029;-65
2021/11/09 14:00:36;;;;;;;12.00;3.70;;;34.90;20.90;;;;;;5028248;28;20463;-65
2021/11/09 14:03:15;;;;;;;12.73;3.63;;;35.10;20.80;;;;;;5028116;28;20029;-65
2021/11/09 14:09:09;;;;;;;14.07;3.75;;;35.20;20.80;;;;;;5034670;28;20025;-65
2021/11/09 14:16:37;;;;;;;13.15;3.78;;;34.90;20.60;;;;;;5029407;28;20033;-65
2021/11/09 14:19:05;;;;;;;13.48;3.63;;;34.80;20.80;;;;;;5029327;28;20068;-64
2021/11/09 14:21:51;;;;;;;63.22;5.32;;;34.60;21.30;;;;;;5025481;28;20037;-63
2021/11/09 14:24:28;;;;;;;13.75;4.13;;;34.20;20.80;;;;;;5028285;28;20044;-63
2021/11/09 14:27:13;;;;;;;13.90;3.75;;;33.70;21.10;;;;;;5027883;28;20504;-64
2021/11/09 14:29:43;;;;;;;11.88;3.60;;;33.40;21.60;;;;;;5042931;28;20025;-63
2021/11/09 14:32:16;;;;;;;12.90;3.78;;;33.20;21.90;;;;;;5024943;28;20030;-63
2021/11/09 14:35:15;;;;;;;13.45;3.50;;;32.70;22.00;;;;;;5021868;28;20033;-64
2021/11/09 14:37:57;;;;;;;13.25;3.70;;;31.10;23.20;;;;;;5029339;28;20089;-63
2021/11/09 14:40:32;;;;;;;15.45;3.47;;;29.30;25.20;;;;;;5030615;28;20112;-64
2021/11/09 14:43:13;;;;;;;17.52;4.03;;;28.10;26.40;;;;;;5020822;28;20038;-63
2021/11/09 14:48:13;;;;;;;16.05;6.28;;;26.40;28.60;;;;;;5022840;28;20033;-63
2021/11/09 14:50:52;;;;;;;14.30;3.90;;;25.90;29.30;;;;;;5018442;28;20031;-63
2021/11/09 14:53:25;;;;;;;14.07;3.80;;;25.80;29.50;;;;;;5017312;28;20485;-64
2021/11/09 14:56:05;;;;;;;17.25;4.03;;;26.80;28.60;;;;;;5017687;28;20081;-63
2021/11/09 14:58:41;;;;;;;17.23;3.85;;;27.40;27.80;;;;;;5027401;28;20047;-63
2021/11/09 15:01:39;;;;;;;14.00;3.80;;;27.70;27.40;;;;;;5015456;28;20034;-63
2021/11/09 15:04:16;;;;;;;13.73;4.00;;;27.60;27.30;;;;;;5028587;28;20026;-64
2021/11/09 15:12:17;;;;;;;15.60;3.80;;;26.80;28.20;;;;;;5027594;28;20083;-63
2021/11/09 15:25:54;;;;;;;15.25;4.05;;;22.80;35.50;;;;;;5055674;28;20040;-63
2021/11/09 15:28:23;;;;;;;15.63;3.72;;;22.50;36.20;;;;;;5068063;28;20044;-63
2021/11/09 15:33:28;;;;;;;23.65;4.45;;;22.20;36.30;;;;;;5068647;28;20047;-64
2021/11/09 15:38:36;;;;;;;18.38;4.03;;;21.60;38.10;;;;;;5058790;28;20029;-63
2021/11/09 15:41:03;;;;;;;21.63;3.95;;;21.30;38.70;;;;;;5064368;28;20097;-63
2021/11/09 15:43:32;;;;;;;14.43;3.70;;;21.00;40.20;;;;;;5067033;28;20127;-63
2021/11/09 15:45:59;;;;;;;12.32;3.40;;;20.80;39.90;;;;;;5053582;28;20036;-63
2021/11/09 15:48:25;;;;;;;16.20;6.38;;;20.70;40.50;;;;;;5051390;28;20454;-64
2021/11/09 15:50:51;;;;;;;16.02;5.57;;;20.50;41.10;;;;;;5056940;28;20555;-63
2021/11/09 15:53:17;;;;;;;22.45;8.15;;;20.40;41.60;;;;;;5058608;28;20112;-63
2021/11/09 15:55:43;;;;;;;17.48;6.68;;;20.20;41.90;;;;;;5064588;28;20056;-64
2021/11/09 15:58:09;;;;;;;15.98;4.38;;;20.10;42.40;;;;;;5054299;28;20098;-63
2021/11/09 16:00:35;;;;;;;14.35;4.35;;;20.00;42.70;;;;;;5028479;28;20490;-62
2021/11/09 16:03:01;;;;;;;13.30;3.78;;;19.80;42.90;;;;;;5036589;28;20460;-63